sensor_id;sensor_type;location;lat;lon;timestamp;pressure;altitude;pressure_sealevel;temperature;humidity
70954;BME280;58618;47.490;8.736;2024-01-11T00:00:04;97232.94;;;-1.50;100.00
70954;BME280;58618;47.490;8.736;2024-01-11T00:02:51;97214.09;;;-1.62;100.00
70954;BME280;58618;47.490;8.736;2024-01-11T00:05:38;97228.97;;;-1.38;100.00
70954;BME280;58618;47.490;8.736;2024-01-11T00:08:27;97231.50;;;-1.38;100.00
70954;BME280;58618;47.490;8.736;2024-01-11T00:11:14;97228.69;;;-1.43;100.00
70954;BME280;58618;47.490;8.736;2024-01-11T00:14:02;97233.22;;;-1.59;100.00
70954;BME280;58618;47.490;8.736;2024-01-11T00:16:51;97233.22;;;-1.59;100.00
70954;BME280;58618;47.490;8.736;2024-01-11T00:19:38;97221.28;;;-1.65;100.00
70954;BME280;58618;47.490;8.736;2024-01-11T00:22:25;97236.16;;;-1.56;100.00
70954;BME280;58618;47.490;8.736;2024-01-11T00:25:13;97232.94;;;-1.50;100.00
70954;BME280;58618;47.490;8.736;2024-01-11T00:28:01;97233.91;;;-1.65;100.00
70954;BME280;58618;47.490;8.736;2024-01-11T00:30:48;97234.63;;;-1.72;100.00
70954;BME280;58618;47.490;8.736;2024-01-11T00:33:39;97226.16;;;-1.64;100.00
70954;BME280;58618;47.490;8.736;2024-01-11T00:36:26;97211.19;;;-1.80;100.00
70954;BME280;58618;47.490;8.736;2024-01-11T00:39:14;97232.34;;;-1.66;100.00
70954;BME280;58618;47.490;8.736;2024-01-11T00:42:02;97236.97;;;-1.70;100.00
70954;BME280;58618;47.490;8.736;2024-01-11T00:44:49;97233.47;;;-1.69;100.00
70954;BME280;58618;47.490;8.736;2024-01-11T00:47:36;97214.75;;;-1.89;100.00
70954;BME280;58618;47.490;8.736;2024-01-11T00:50:25;97238.91;;;-1.72;100.00
70954;BME280;58618;47.490;8.736;2024-01-11T00:53:13;97231.59;;;-1.82;100.00
70954;BME280;58618;47.490;8.736;2024-01-11T00:56:00;97241.88;;;-1.83;100.00
70954;BME280;58618;47.490;8.736;2024-01-11T00:58:48;97242.03;;;-1.85;100.00
70954;BME280;58618;47.490;8.736;2024-01-11T01:01:35;97236.13;;;-1.77;100.00
70954;BME280;58618;47.490;8.736;2024-01-11T01:04:23;97235.41;;;-1.71;100.00
70954;BME280;58618;47.490;8.736;2024-01-11T01:07:12;97242.03;;;-1.70;100.00
70954;BME280;58618;47.490;8.736;2024-01-11T01:09:59;97243.16;;;-1.73;100.00
70954;BME280;58618;47.490;8.736;2024-01-11T01:12:46;97245.59;;;-1.64;100.00
70954;BME280;58618;47.490;8.736;2024-01-11T01:15:34;97240.25;;;-1.55;100.00
70954;BME280;58618;47.490;8.736;2024-01-11T01:18:21;97253.09;;;-1.56;100.00
70954;BME280;58618;47.490;8.736;2024-01-11T01:21:08;97257.22;;;-1.70;100.00
70954;BME280;58618;47.490;8.736;2024-01-11T01:23:57;97254.44;;;-1.75;100.00
70954;BME280;58618;47.490;8.736;2024-01-11T01:26:44;97252.25;;;-1.78;100.00
70954;BME280;58618;47.490;8.736;2024-01-11T01:29:32;97259.03;;;-1.79;100.00
70954;BME280;58618;47.490;8.736;2024-01-11T01:32:19;97262.97;;;-1.76;100.00
70954;BME280;58618;47.490;8.736;2024-01-11T01:35:07;97262.97;;;-1.76;100.00
70954;BME280;58618;47.490;8.736;2024-01-11T01:37:55;97269.16;;;-1.64;100.00
70954;BME280;58618;47.490;8.736;2024-01-11T01:40:43;97266.00;;;-1.66;100.00
70954;BME280;58618;47.490;8.736;2024-01-11T01:43:31;97281.19;;;-1.81;100.00
70954;BME280;58618;47.490;8.736;2024-01-11T01:46:21;97275.94;;;-1.94;100.00
70954;BME280;58618;47.490;8.736;2024-01-11T01:49:10;97282.69;;;-1.86;100.00
70954;BME280;58618;47.490;8.736;2024-01-11T01:51:58;97285.34;;;-1.73;100.00
70954;BME280;58618;47.490;8.736;2024-01-11T01:54:47;97279.53;;;-1.88;100.00
70954;BME280;58618;47.490;8.736;2024-01-11T01:57:38;97280.22;;;-1.94;100.00
70954;BME280;58618;47.490;8.736;2024-01-11T02:00:27;97290.59;;;-1.89;100.00
70954;BME280;58618;47.490;8.736;2024-01-11T02:03:14;97293.47;;;-1.92;100.00
70954;BME280;58618;47.490;8.736;2024-01-11T02:06:05;97298.19;;;-1.89;100.00
70954;BME280;58618;47.490;8.736;2024-01-11T02:08:53;97301.41;;;-1.81;100.00
70954;BME280;58618;47.490;8.736;2024-01-11T02:11:42;97295.22;;;-1.93;100.00
70954;BME280;58618;47.490;8.736;2024-01-11T02:14:30;97281.06;;;-2.17;100.00
70954;BME280;58618;47.490;8.736;2024-01-11T02:17:18;97295.66;;;-2.04;100.00
70954;BME280;58618;47.490;8.736;2024-01-11T02:20:06;97291.38;;;-2.03;100.00
70954;BME280;58618;47.490;8.736;2024-01-11T02:22:56;97294.16;;;-1.98;100.00
70954;BME280;58618;47.490;8.736;2024-01-11T02:25:47;97294.69;;;-1.88;100.00
70954;BME280;58618;47.490;8.736;2024-01-11T02:28:34;97302.91;;;-1.86;100.00
70954;BME280;58618;47.490;8.736;2024-01-11T02:31:22;97299.66;;;-1.95;100.00
70954;BME280;58618;47.490;8.736;2024-01-11T02:34:10;97302.03;;;-1.93;100.00
70954;BME280;58618;47.490;8.736;2024-01-11T02:36:57;97304.38;;;-1.92;100.00
70954;BME280;58618;47.490;8.736;2024-01-11T02:39:45;97309.34;;;-1.98;100.00
70954;BME280;58618;47.490;8.736;2024-01-11T02:42:33;97309.53;;;-1.85;100.00
70954;BME280;58618;47.490;8.736;2024-01-11T02:45:21;97300.88;;;-2.05;100.00
70954;BME280;58618;47.490;8.736;2024-01-11T02:48:08;97295.13;;;-2.14;100.00
70954;BME280;58618;47.490;8.736;2024-01-11T02:50:56;97293.38;;;-2.14;100.00
70954;BME280;58618;47.490;8.736;2024-01-11T02:53:43;97280.06;;;-2.07;100.00
70954;BME280;58618;47.490;8.736;2024-01-11T02:56:32;97274.75;;;-2.13;100.00
70954;BME280;58618;47.490;8.736;2024-01-11T02:59:21;97284.75;;;-2.04;100.00
70954;BME280;58618;47.490;8.736;2024-01-11T03:02:09;97285.28;;;-1.94;100.00
70954;BME280;58618;47.490;8.736;2024-01-11T03:04:59;97282.31;;;-2.13;100.00
70954;BME280;58618;47.490;8.736;2024-01-11T03:07:47;97280.06;;;-2.07;100.00
70954;BME280;58618;47.490;8.736;2024-01-11T03:10:37;97280.91;;;-2.00;100.00
70954;BME280;58618;47.490;8.736;2024-01-11T03:13:25;97278.66;;;-1.95;100.00
70954;BME280;58618;47.490;8.736;2024-01-11T03:16:13;97269.59;;;-2.04;100.00
70954;BME280;58618;47.490;8.736;2024-01-11T03:19:01;97276.22;;;-2.03;100.00
70954;BME280;58618;47.490;8.736;2024-01-11T03:21:48;97260.16;;;-2.10;100.00
70954;BME280;58618;47.490;8.736;2024-01-11T03:24:37;97268.91;;;-1.98;100.00
70954;BME280;58618;47.490;8.736;2024-01-11T03:27:25;97268.91;;;-1.98;100.00
70954;BME280;58618;47.490;8.736;2024-01-11T03:30:13;97269.41;;;-1.88;100.00
70954;BME280;58618;47.490;8.736;2024-01-11T03:33:04;97267.78;;;-1.96;100.00
70954;BME280;58618;47.490;8.736;2024-01-11T03:35:51;97267.50;;;-1.86;100.00
70954;BME280;58618;47.490;8.736;2024-01-11T03:38:39;97272.56;;;-1.86;100.00
70954;BME280;58618;47.490;8.736;2024-01-11T03:41:26;97275.00;;;-1.78;100.00
70954;BME280;58618;47.490;8.736;2024-01-11T03:44:13;97281.88;;;-1.72;100.00
70954;BME280;58618;47.490;8.736;2024-01-11T03:47:01;97276.03;;;-1.87;100.00
70954;BME280;58618;47.490;8.736;2024-01-11T03:49:49;97271.94;;;-1.88;100.00
70954;BME280;58618;47.490;8.736;2024-01-11T03:52:37;97267.50;;;-2.01;100.00
70954;BME280;58618;47.490;8.736;2024-01-11T03:55:24;97267.84;;;-1.89;100.00
70954;BME280;58618;47.490;8.736;2024-01-11T03:58:12;97269.25;;;-2.01;100.00
70954;BME280;58618;47.490;8.736;2024-01-11T04:01:00;97260.50;;;-1.84;100.00
70954;BME280;58618;47.490;8.736;2024-01-11T04:03:47;97274.66;;;-1.75;100.00
70954;BME280;58618;47.490;8.736;2024-01-11T04:06:36;97258.34;;;-1.73;100.00
70954;BME280;58618;47.490;8.736;2024-01-11T04:09:24;97248.59;;;-1.76;100.00
70954;BME280;58618;47.490;8.736;2024-01-11T04:12:11;97259.66;;;-1.91;100.00
70954;BME280;58618;47.490;8.736;2024-01-11T04:14:58;97265.66;;;-1.78;100.00
70954;BME280;58618;47.490;8.736;2024-01-11T04:17:46;97256.16;;;-1.90;100.00
70954;BME280;58618;47.490;8.736;2024-01-11T04:20:33;97264.78;;;-1.99;100.00
70954;BME280;58618;47.490;8.736;2024-01-11T04:23:22;97261.22;;;-2.05;100.00
70954;BME280;58618;47.490;8.736;2024-01-11T04:26:10;97255.75;;;-2.08;100.00
70954;BME280;58618;47.490;8.736;2024-01-11T04:28:57;97266.00;;;-1.95;100.00
70954;BME280;58618;47.490;8.736;2024-01-11T04:31:45;97260.44;;;-2.05;100.00
70954;BME280;58618;47.490;8.736;2024-01-11T04:34:33;97257.31;;;-1.93;100.00
70954;BME280;58618;47.490;8.736;2024-01-11T04:37:20;97259.41;;;-1.82;100.00
70954;BME280;58618;47.490;8.736;2024-01-11T04:40:10;97263.31;;;-1.79;100.00
70954;BME280;58618;47.490;8.736;2024-01-11T04:42:57;97254.63;;;-1.91;100.00
70954;BME280;58618;47.490;8.736;2024-01-11T04:45:44;97259.72;;;-1.85;100.00
70954;BME280;58618;47.490;8.736;2024-01-11T04:48:32;97258.69;;;-1.90;100.00
70954;BME280;58618;47.490;8.736;2024-01-11T04:51:19;97254.00;;;-1.93;100.00
70954;BME280;58618;47.490;8.736;2024-01-11T04:54:07;97261.56;;;-1.93;100.00
70954;BME280;58618;47.490;8.736;2024-01-11T04:56:56;97253.38;;;-1.95;100.00
70954;BME280;58618;47.490;8.736;2024-01-11T04:59:44;97240.56;;;-1.94;100.00
70954;BME280;58618;47.490;8.736;2024-01-11T05:02:31;97254.25;;;-1.88;100.00
70954;BME280;58618;47.490;8.736;2024-01-11T05:05:18;97249.88;;;-1.94;100.00
70954;BME280;58618;47.490;8.736;2024-01-11T05:08:05;97251.47;;;-1.93;100.00
70954;BME280;58618;47.490;8.736;2024-01-11T05:10:53;97232.47;;;-2.19;100.00
70954;BME280;58618;47.490;8.736;2024-01-11T05:13:42;97244.69;;;-2.07;100.00
70954;BME280;58618;47.490;8.736;2024-01-11T05:16:31;97243.09;;;-2.08;100.00
70954;BME280;58618;47.490;8.736;2024-01-11T05:19:19;97243.63;;;-1.98;100.00
70954;BME280;58618;47.490;8.736;2024-01-11T05:22:06;97247.88;;;-1.84;100.00
70954;BME280;58618;47.490;8.736;2024-01-11T05:24:53;97256.34;;;-2.06;100.00
70954;BME280;58618;47.490;8.736;2024-01-11T05:27:41;97248.78;;;-1.92;100.00
70954;BME280;58618;47.490;8.736;2024-01-11T05:30:30;97214.88;;;-2.12;100.00
70954;BME280;58618;47.490;8.736;2024-01-11T05:33:17;97231.66;;;-1.90;100.00
70954;BME280;58618;47.490;8.736;2024-01-11T05:36:05;97243.16;;;-1.73;100.00
70954;BME280;58618;47.490;8.736;2024-01-11T05:38:53;97241.00;;;-1.90;100.00
70954;BME280;58618;47.490;8.736;2024-01-11T05:41:43;97247.00;;;-1.77;100.00
70954;BME280;58618;47.490;8.736;2024-01-11T05:44:30;97248.13;;;-1.79;100.00
70954;BME280;58618;47.490;8.736;2024-01-11T05:47:19;97228.47;;;-1.98;100.00
70954;BME280;58618;47.490;8.736;2024-01-11T05:50:08;97239.78;;;-1.94;100.00
70954;BME280;58618;47.490;8.736;2024-01-11T05:52:55;97248.94;;;-2.08;100.00
70954;BME280;58618;47.490;8.736;2024-01-11T05:55:42;97248.31;;;-1.95;100.00
70954;BME280;58618;47.490;8.736;2024-01-11T05:58:30;97239.97;;;-1.81;100.00
70954;BME280;58618;47.490;8.736;2024-01-11T06:01:17;97247.25;;;-1.72;100.00
70954;BME280;58618;47.490;8.736;2024-01-11T06:04:06;97249.78;;;-1.72;100.00
70954;BME280;58618;47.490;8.736;2024-01-11T06:06:53;97257.72;;;-1.89;100.00
70954;BME280;58618;47.490;8.736;2024-01-11T06:09:41;97265.25;;;-1.81;100.00
70954;BME280;58618;47.490;8.736;2024-01-11T06:12:28;97261.56;;;-1.93;100.00
70954;BME280;58618;47.490;8.736;2024-01-11T06:15:16;97259.47;;;-1.75;100.00
70954;BME280;58618;47.490;8.736;2024-01-11T06:18:04;97269.25;;;-1.72;100.00
70954;BME280;58618;47.490;8.736;2024-01-11T06:20:53;97263.47;;;-1.95;100.00
70954;BME280;58618;47.490;8.736;2024-01-11T06:23:40;97272.13;;;-2.04;100.00
70954;BME280;58618;47.490;8.736;2024-01-11T06:26:27;97285.63;;;-1.97;100.00
70954;BME280;58618;47.490;8.736;2024-01-11T06:29:15;97273.78;;;-2.11;100.00
70954;BME280;58618;47.490;8.736;2024-01-11T06:32:02;97278.91;;;-2.05;100.00
70954;BME280;58618;47.490;8.736;2024-01-11T06:34:50;97280.22;;;-1.94;100.00
70954;BME280;58618;47.490;8.736;2024-01-11T06:37:40;97280.75;;;-1.99;100.00
70954;BME280;58618;47.490;8.736;2024-01-11T06:40:27;97286.31;;;-2.03;100.00
70954;BME280;58618;47.490;8.736;2024-01-11T06:43:15;97282.75;;;-2.09;100.00
70954;BME280;58618;47.490;8.736;2024-01-11T06:46:03;97277.53;;;-2.07;100.00
70954;BME280;58618;47.490;8.736;2024-01-11T06:48:51;97291.28;;;-2.10;100.00
70954;BME280;58618;47.490;8.736;2024-01-11T06:51:38;97270.44;;;-2.27;100.00
70954;BME280;58618;47.490;8.736;2024-01-11T06:54:27;97292.44;;;-2.13;100.00
70954;BME280;58618;47.490;8.736;2024-01-11T06:57:16;97289.97;;;-2.21;100.00
70954;BME280;58618;47.490;8.736;2024-01-11T07:00:04;97305.31;;;-2.07;100.00
70954;BME280;58618;47.490;8.736;2024-01-11T07:02:53;97312.97;;;-2.16;100.00
70954;BME280;58618;47.490;8.736;2024-01-11T07:05:41;97315.06;;;-2.04;100.00
70954;BME280;58618;47.490;8.736;2024-01-11T07:08:28;97309.06;;;-2.03;100.00
70954;BME280;58618;47.490;8.736;2024-01-11T07:11:17;97307.06;;;-2.23;100.00
70954;BME280;58618;47.490;8.736;2024-01-11T07:14:04;97302.00;;;-2.23;100.00
70954;BME280;58618;47.490;8.736;2024-01-11T07:16:51;97307.09;;;-2.31;100.00
70954;BME280;58618;47.490;8.736;2024-01-11T07:19:39;97321.84;;;-2.20;100.00
70954;BME280;58618;47.490;8.736;2024-01-11T07:22:26;97322.75;;;-2.13;100.00
70954;BME280;58618;47.490;8.736;2024-01-11T07:25:13;97318.91;;;-2.08;100.00
70954;BME280;58618;47.490;8.736;2024-01-11T07:28:03;97325.19;;;-2.04;100.00
70954;BME280;58618;47.490;8.736;2024-01-11T07:30:50;97329.38;;;-2.11;100.00
70954;BME280;58618;47.490;8.736;2024-01-11T07:33:37;97325.88;;;-2.10;100.00
70954;BME280;58618;47.490;8.736;2024-01-11T07:36:25;97330.50;;;-2.14;100.00
70954;BME280;58618;47.490;8.736;2024-01-11T07:39:12;97332.94;;;-2.06;100.00
70954;BME280;58618;47.490;8.736;2024-01-11T07:41:59;97334.44;;;-2.11;100.00
70954;BME280;58618;47.490;8.736;2024-01-11T07:44:48;97337.22;;;-2.06;100.00
70954;BME280;58618;47.490;8.736;2024-01-11T07:47:36;97337.81;;;-2.04;100.00
70954;BME280;58618;47.490;8.736;2024-01-11T07:50:24;97339.03;;;-2.15;100.00
70954;BME280;58618;47.490;8.736;2024-01-11T07:53:11;97337.81;;;-2.19;100.00
70954;BME280;58618;47.490;8.736;2024-01-11T07:55:58;97337.69;;;-2.26;100.00
70954;BME280;58618;47.490;8.736;2024-01-11T07:58:46;97334.91;;;-2.31;100.00
70954;BME280;58618;47.490;8.736;2024-01-11T08:01:35;97348.88;;;-2.20;100.00
70954;BME280;58618;47.490;8.736;2024-01-11T08:04:22;97361.25;;;-2.10;100.00
70954;BME280;58618;47.490;8.736;2024-01-11T08:07:09;97328.91;;;-2.30;100.00
70954;BME280;58618;47.490;8.736;2024-01-11T08:09:57;97366.50;;;-2.12;100.00
70954;BME280;58618;47.490;8.736;2024-01-11T08:12:44;97365.09;;;-2.15;100.00
70954;BME280;58618;47.490;8.736;2024-01-11T08:15:31;97359.03;;;-2.28;100.00
70954;BME280;58618;47.490;8.736;2024-01-11T08:18:20;97367.19;;;-2.18;100.00
70954;BME280;58618;47.490;8.736;2024-01-11T08:21:07;97360.72;;;-2.21;100.00
70954;BME280;58618;47.490;8.736;2024-01-11T08:23:55;97368.28;;;-2.21;100.00
70954;BME280;58618;47.490;8.736;2024-01-11T08:26:43;97383.25;;;-1.96;100.00
70954;BME280;58618;47.490;8.736;2024-01-11T08:29:30;97364.09;;;-1.91;100.00
70954;BME280;58618;47.490;8.736;2024-01-11T08:32:19;97380.72;;;-1.96;100.00
70954;BME280;58618;47.490;8.736;2024-01-11T08:35:08;97351.28;;;-2.27;100.00
70954;BME280;58618;47.490;8.736;2024-01-11T08:37:56;97375.88;;;-2.21;100.00
70954;BME280;58618;47.490;8.736;2024-01-11T08:40:43;97379.91;;;-2.11;100.00
70954;BME280;58618;47.490;8.736;2024-01-11T08:43:32;97371.16;;;-2.24;100.00
70954;BME280;58618;47.490;8.736;2024-01-11T08:46:23;97369.22;;;-2.22;100.00
70954;BME280;58618;47.490;8.736;2024-01-11T08:49:11;97367.59;;;-2.15;100.00
70954;BME280;58618;47.490;8.736;2024-01-11T08:52:00;97382.38;;;-2.03;100.00
70954;BME280;58618;47.490;8.736;2024-01-11T08:54:48;97364.97;;;-2.21;100.00
70954;BME280;58618;47.490;8.736;2024-01-11T08:57:36;97376.28;;;-1.94;100.00
70954;BME280;58618;47.490;8.736;2024-01-11T09:00:23;97384.66;;;-1.79;100.00
70954;BME280;58618;47.490;8.736;2024-01-11T09:03:11;97392.38;;;-1.95;100.00
70954;BME280;58618;47.490;8.736;2024-01-11T09:05:59;97389.84;;;-1.95;100.00
70954;BME280;58618;47.490;8.736;2024-01-11T09:08:48;97389.38;;;-1.76;100.00
70954;BME280;58618;47.490;8.736;2024-01-11T09:11:36;97374.13;;;-1.83;100.00
70954;BME280;58618;47.490;8.736;2024-01-11T09:14:23;97392.66;;;-1.90;100.00
70954;BME280;58618;47.490;8.736;2024-01-11T09:17:11;97398.59;;;-1.83;100.00
70954;BME280;58618;47.490;8.736;2024-01-11T09:19:58;97394.09;;;-1.73;100.00
70954;BME280;58618;47.490;8.736;2024-01-11T09:22:46;97407.69;;;-1.74;100.00
70954;BME280;58618;47.490;8.736;2024-01-11T09:25:34;97406.03;;;-1.82;100.00
70954;BME280;58618;47.490;8.736;2024-01-11T09:28:22;97414.84;;;-1.63;100.00
70954;BME280;58618;47.490;8.736;2024-01-11T09:31:09;97403.50;;;-1.67;100.00
70954;BME280;58618;47.490;8.736;2024-01-11T09:33:56;97417.13;;;-1.68;100.00
70954;BME280;58618;47.490;8.736;2024-01-11T09:36:44;97406.28;;;-1.91;100.00
70954;BME280;58618;47.490;8.736;2024-01-11T09:39:31;97409.53;;;-2.05;100.00
70954;BME280;58618;47.490;8.736;2024-01-11T09:42:20;97401.69;;;-2.10;100.00
70954;BME280;58618;47.490;8.736;2024-01-11T09:45:10;97391.63;;;-1.96;100.00
70954;BME280;58618;47.490;8.736;2024-01-11T09:47:59;97406.34;;;-1.99;100.00
70954;BME280;58618;47.490;8.736;2024-01-11T09:50:50;97400.88;;;-1.88;100.00
70954;BME280;58618;47.490;8.736;2024-01-11T09:53:38;97403.75;;;-1.91;100.00
70954;BME280;58618;47.490;8.736;2024-01-11T09:56:25;97396.81;;;-1.75;100.00
70954;BME280;58618;47.490;8.736;2024-01-11T09:59:18;97407.06;;;-1.91;100.00
70954;BME280;58618;47.490;8.736;2024-01-11T10:02:10;97412.56;;;-1.87;100.00
70954;BME280;58618;47.490;8.736;2024-01-11T10:04:58;97413.47;;;-1.65;100.00
70954;BME280;58618;47.490;8.736;2024-01-11T10:07:46;97404.75;;;-2.00;100.00
70954;BME280;58618;47.490;8.736;2024-01-11T10:10:33;97417.63;;;-1.87;100.00
70954;BME280;58618;47.490;8.736;2024-01-11T10:13:26;97410.66;;;-1.85;100.00
70954;BME280;58618;47.490;8.736;2024-01-11T10:16:16;97426.16;;;-1.88;100.00
70954;BME280;58618;47.490;8.736;2024-01-11T10:19:03;97420.41;;;-1.82;100.00
70954;BME280;58618;47.490;8.736;2024-01-11T10:21:51;97409.66;;;-1.84;100.00
70954;BME280;58618;47.490;8.736;2024-01-11T10:24:38;97424.44;;;-1.73;100.00
70954;BME280;58618;47.490;8.736;2024-01-11T10:27:26;97417.94;;;-1.90;100.00
70954;BME280;58618;47.490;8.736;2024-01-11T10:30:15;97414.78;;;-2.07;100.00
70954;BME280;58618;47.490;8.736;2024-01-11T10:33:07;97427.50;;;-2.00;100.00
70954;BME280;58618;47.490;8.736;2024-01-11T10:35:54;97432.09;;;-1.81;100.00
70954;BME280;58618;47.490;8.736;2024-01-11T10:38:42;97413.50;;;-1.88;100.00
70954;BME280;58618;47.490;8.736;2024-01-11T10:41:32;97424.69;;;-1.83;100.00
70954;BME280;58618;47.490;8.736;2024-01-11T10:44:26;97414.81;;;-1.92;100.00
70954;BME280;58618;47.490;8.736;2024-01-11T10:47:19;97437.41;;;-1.91;100.00
70954;BME280;58618;47.490;8.736;2024-01-11T10:50:10;97438.16;;;-1.90;100.00
70954;BME280;58618;47.490;8.736;2024-01-11T10:53:04;97415.72;;;-2.08;100.00
70954;BME280;58618;47.490;8.736;2024-01-11T10:55:55;97429.19;;;-2.16;100.00
70954;BME280;58618;47.490;8.736;2024-01-11T10:58:45;97417.31;;;-2.30;100.00
70954;BME280;58618;47.490;8.736;2024-01-11T11:01:33;97427.09;;;-2.58;100.00
70954;BME280;58618;47.490;8.736;2024-01-11T11:04:22;97417.81;;;-2.57;100.00
70954;BME280;58618;47.490;8.736;2024-01-11T11:07:11;97426.94;;;-2.56;100.00
70954;BME280;58618;47.490;8.736;2024-01-11T11:10:01;97427.16;;;-2.66;100.00
70954;BME280;58618;47.490;8.736;2024-01-11T11:12:51;97416.50;;;-2.53;100.00
70954;BME280;58618;47.490;8.736;2024-01-11T11:15:42;97408.81;;;-2.14;100.00
70954;BME280;58618;47.490;8.736;2024-01-11T11:18:33;97401.69;;;-2.56;100.00
70954;BME280;58618;47.490;8.736;2024-01-11T11:21:23;97399.22;;;-2.64;100.00
70954;BME280;58618;47.490;8.736;2024-01-11T11:24:14;97398.66;;;-2.51;100.00
70954;BME280;58618;47.490;8.736;2024-01-11T11:27:05;97394.34;;;-2.43;100.00
70954;BME280;58618;47.490;8.736;2024-01-11T11:29:53;97376.78;;;-2.36;100.00
70954;BME280;58618;47.490;8.736;2024-01-11T11:32:43;97383.53;;;-2.29;100.00
70954;BME280;58618;47.490;8.736;2024-01-11T11:35:30;97376.41;;;-2.10;100.00
70954;BME280;58618;47.490;8.736;2024-01-11T11:38:20;97375.06;;;-1.98;100.00
70954;BME280;58618;47.490;8.736;2024-01-11T11:41:09;97372.00;;;-1.79;100.00
70954;BME280;58618;47.490;8.736;2024-01-11T11:44:00;97362.09;;;-2.33;100.00
70954;BME280;58618;47.490;8.736;2024-01-11T11:46:48;97370.22;;;-2.23;100.00
70954;BME280;58618;47.490;8.736;2024-01-11T11:49:56;97371.50;;;-2.27;100.00
70954;BME280;58618;47.490;8.736;2024-01-11T11:52:44;97375.06;;;-2.21;100.00
70954;BME280;58618;47.490;8.736;2024-01-11T11:55:34;97363.91;;;-2.27;100.00
70954;BME280;58618;47.490;8.736;2024-01-11T11:58:23;97369.03;;;-2.35;100.00
70954;BME280;58618;47.490;8.736;2024-01-11T12:01:12;97340.44;;;-2.50;100.00
70954;BME280;58618;47.490;8.736;2024-01-11T12:04:00;97345.91;;;-2.46;100.00
70954;BME280;58618;47.490;8.736;2024-01-11T12:06:48;97350.72;;;-2.37;100.00
70954;BME280;58618;47.490;8.736;2024-01-11T12:09:36;97350.28;;;-2.40;100.00
70954;BME280;58618;47.490;8.736;2024-01-11T12:12:23;97357.72;;;-2.39;100.00
70954;BME280;58618;47.490;8.736;2024-01-11T12:15:12;97347.50;;;-2.08;100.00
70954;BME280;58618;47.490;8.736;2024-01-11T12:17:59;97368.22;;;-2.13;100.00
70954;BME280;58618;47.490;8.736;2024-01-11T12:20:47;97328.75;;;-2.51;100.00
70954;BME280;58618;47.490;8.736;2024-01-11T12:23:36;97364.53;;;-2.25;100.00
70954;BME280;58618;47.490;8.736;2024-01-11T12:26:24;97371.72;;;-2.36;100.00
70954;BME280;58618;47.490;8.736;2024-01-11T12:29:13;97354.00;;;-2.51;100.00
70954;BME280;58618;47.490;8.736;2024-01-11T12:32:01;97360.84;;;-2.37;100.00
70954;BME280;58618;47.490;8.736;2024-01-11T12:34:49;97360.16;;;-2.31;100.00
70954;BME280;58618;47.490;8.736;2024-01-11T12:37:37;97360.84;;;-2.37;100.00
70954;BME280;58618;47.490;8.736;2024-01-11T12:40:25;97355.69;;;-2.43;100.00
70954;BME280;58618;47.490;8.736;2024-01-11T12:43:15;97356.63;;;-2.67;100.00
70954;BME280;58618;47.490;8.736;2024-01-11T12:46:02;97361.19;;;-2.63;100.00
70954;BME280;58618;47.490;8.736;2024-01-11T12:48:51;97365.00;;;-2.44;100.00
70954;BME280;58618;47.490;8.736;2024-01-11T12:51:39;97363.19;;;-2.58;100.00
70954;BME280;58618;47.490;8.736;2024-01-11T12:54:27;97359.28;;;-2.61;100.00
70954;BME280;58618;47.490;8.736;2024-01-11T12:57:17;97367.78;;;-2.84;100.00
70954;BME280;58618;47.490;8.736;2024-01-11T13:00:12;97355.25;;;-3.01;100.00
70954;BME280;58618;47.490;8.736;2024-01-11T13:03:02;97370.97;;;-2.90;100.00
70954;BME280;58618;47.490;8.736;2024-01-11T13:05:52;97363.88;;;-2.87;100.00
70954;BME280;58618;47.490;8.736;2024-01-11T13:08:39;97367.22;;;-2.94;100.00
70954;BME280;58618;47.490;8.736;2024-01-11T13:11:27;97369.38;;;-2.61;100.00
70954;BME280;58618;47.490;8.736;2024-01-11T13:14:15;97361.53;;;-2.66;100.00
70954;BME280;58618;47.490;8.736;2024-01-11T13:17:05;97371.06;;;-2.53;100.00
70954;BME280;58618;47.490;8.736;2024-01-11T13:19:53;97381.84;;;-2.59;100.00
70954;BME280;58618;47.490;8.736;2024-01-11T13:22:42;97382.25;;;-2.78;100.00
70954;BME280;58618;47.490;8.736;2024-01-11T13:25:29;97381.94;;;-2.75;100.00
70954;BME280;58618;47.490;8.736;2024-01-11T13:28:17;97369.69;;;-2.86;100.00
70954;BME280;58618;47.490;8.736;2024-01-11T13:31:05;97378.09;;;-2.94;100.00
70954;BME280;58618;47.490;8.736;2024-01-11T13:33:54;97391.75;;;-2.80;100.00
70954;BME280;58618;47.490;8.736;2024-01-11T13:36:42;97387.50;;;-2.57;100.00
70954;BME280;58618;47.490;8.736;2024-01-11T13:39:31;97376.25;;;-2.77;100.00
70954;BME280;58618;47.490;8.736;2024-01-11T13:42:18;97385.16;;;-2.89;100.00
70954;BME280;58618;47.490;8.736;2024-01-11T13:45:07;97381.59;;;-2.72;100.00
70954;BME280;58618;47.490;8.736;2024-01-11T13:47:55;97394.72;;;-2.77;100.00
70954;BME280;58618;47.490;8.736;2024-01-11T13:50:42;97380.78;;;-2.95;100.00
70954;BME280;58618;47.490;8.736;2024-01-11T13:53:29;97378.22;;;-2.87;100.00
70954;BME280;58618;47.490;8.736;2024-01-11T13:56:18;97365.03;;;-2.97;100.00
70954;BME280;58618;47.490;8.736;2024-01-11T13:59:06;97377.84;;;-2.76;100.00
70954;BME280;58618;47.490;8.736;2024-01-11T14:01:53;97375.31;;;-2.76;100.00
70954;BME280;58618;47.490;8.736;2024-01-11T14:04:40;97377.66;;;-2.75;100.00
70954;BME280;58618;47.490;8.736;2024-01-11T14:07:28;97370.28;;;-2.76;100.00
70954;BME280;58618;47.490;8.736;2024-01-11T14:10:16;97373.66;;;-2.92;100.00
70954;BME280;58618;47.490;8.736;2024-01-11T14:13:05;97367.56;;;-2.97;100.00
70954;BME280;58618;47.490;8.736;2024-01-11T14:15:53;97389.69;;;-2.85;100.00
70954;BME280;58618;47.490;8.736;2024-01-11T14:18:40;97392.13;;;-2.91;100.00
70954;BME280;58618;47.490;8.736;2024-01-11T14:21:28;97396.19;;;-2.90;100.00
70954;BME280;58618;47.490;8.736;2024-01-11T14:24:15;97380.78;;;-2.95;100.00
70954;BME280;58618;47.490;8.736;2024-01-11T14:27:03;97392.81;;;-2.75;100.00
70954;BME280;58618;47.490;8.736;2024-01-11T14:29:52;97394.75;;;-2.54;100.00
70954;BME280;58618;47.490;8.736;2024-01-11T14:32:39;97398.19;;;-2.78;100.00
70954;BME280;58618;47.490;8.736;2024-01-11T14:35:28;97398.06;;;-2.84;100.00
70954;BME280;58618;47.490;8.736;2024-01-11T14:38:15;97409.38;;;-2.72;100.00